Time;durP1;ratioP1;P1;durP2;ratioP2;P2;SDS_P1;SDS_P2;PMS_P1;PMS_P2;Temp;Humidity;BMP_temperature;BMP_pressure;BME280_temperature;BME280_humidity;BME280_pressure;Samples;Min_cycle;Max_cycle;Signal;HPM_P1;HPM_P2
2023/08/09 00:00:12;;;;;;;;;3.25;2.50;;;;;20.24;45.18;99296.00;5065282;28;46527;-62
2023/08/09 00:02:37;;;;;;;;;4.00;2.80;;;;;20.21;45.02;99301.59;5067115;28;45576;-62
2023/08/09 00:05:04;;;;;;;;;2.50;2.50;;;;;20.17;45.04;99292.94;5065816;27;45652;-62
2023/08/09 00:07:30;;;;;;;;;2.00;2.00;;;;;20.17;45.36;99289.41;5069849;28;45531;-62
2023/08/09 00:09:55;;;;;;;;;4.00;3.00;;;;;20.17;45.75;99297.44;5064426;28;45523;-62
2023/08/09 00:12:21;;;;;;;;;3.00;2.25;;;;;20.17;45.90;99292.09;5069653;28;45786;-62
2023/08/09 00:14:46;;;;;;;;;2.25;2.25;;;;;20.15;46.12;99294.88;5059999;28;45753;-62
2023/08/09 00:17:11;;;;;;;;;4.00;2.75;;;;;20.15;46.09;99294.00;5069785;28;45373;-62
2023/08/09 00:19:37;;;;;;;;;3.50;2.50;;;;;20.12;46.88;99295.09;5061973;28;46740;-62
2023/08/09 00:22:02;;;;;;;;;2.25;2.00;;;;;20.11;47.04;99308.59;5066466;28;45402;-62
2023/08/09 00:24:28;;;;;;;;;1.50;1.50;;;;;20.09;47.59;99311.41;5067546;28;46373;-62
2023/08/09 00:26:53;;;;;;;;;2.25;2.25;;;;;20.06;47.00;99313.47;5059158;28;45512;-62
2023/08/09 00:29:19;;;;;;;;;2.25;2.25;;;;;20.02;47.12;99309.31;5066306;28;46573;-62
2023/08/09 00:31:44;;;;;;;;;2.25;2.25;;;;;19.99;47.54;99312.22;5068453;28;45505;-62
2023/08/09 00:34:10;;;;;;;;;4.00;2.75;;;;;19.96;48.00;99309.75;5070289;28;45475;-63
2023/08/09 00:36:37;;;;;;;;;2.40;2.40;;;;;19.92;47.75;99303.81;5065266;28;45615;-62
2023/08/09 00:39:05;;;;;;;;;2.40;2.40;;;;;19.88;47.75;99307.69;5068073;28;45573;-62
2023/08/09 00:41:31;;;;;;;;;3.00;3.00;;;;;19.84;48.08;99315.09;5061221;28;45569;-62
2023/08/09 00:43:56;;;;;;;;;1.75;1.50;;;;;19.80;47.71;99316.28;5069064;28;45507;-62
2023/08/09 00:46:22;;;;;;;;;2.00;2.00;;;;;19.78;48.33;99314.69;5064004;28;45432;-62
2023/08/09 00:48:47;;;;;;;;;2.00;2.00;;;;;19.73;48.66;99311.50;5071184;28;46051;-62
2023/08/09 00:51:13;;;;;;;;;2.75;2.75;;;;;19.71;48.60;99313.44;5064099;28;45466;-63
2023/08/09 00:53:39;;;;;;;;;3.00;3.00;;;;;19.69;48.50;99307.34;5071839;28;45574;-63
2023/08/09 00:56:04;;;;;;;;;1.50;1.50;;;;;19.67;48.57;99298.59;5067431;28;45421;-63
2023/08/09 00:58:30;;;;;;;;;2.00;2.00;;;;;19.64;48.69;99306.81;5070921;28;45573;-62
2023/08/09 01:00:55;;;;;;;;;2.00;2.00;;;;;19.62;48.58;99303.41;5060030;27;45436;-63
2023/08/09 01:03:21;;;;;;;;;4.00;3.00;;;;;19.60;48.67;99308.91;5070608;28;45506;-63
2023/08/09 01:06:01;;;;;;;;;2.50;2.50;;;;;19.60;48.62;99318.75;5060180;28;45487;-63
2023/08/09 01:08:34;;;;;;;;;2.00;2.00;;;;;19.59;48.37;99322.38;5070013;28;45994;-62
2023/08/09 01:11:12;;;;;;;;;2.00;2.00;;;;;19.57;48.92;99318.97;5059865;28;45508;-62
2023/08/09 01:13:40;;;;;;;;;2.60;2.60;;;;;19.54;48.96;99320.03;5069823;28;45463;-63
2023/08/09 01:16:07;;;;;;;;;2.00;2.00;;;;;19.50;49.23;99323.91;5061579;28;45631;-63
2023/08/09 01:18:35;;;;;;;;;1.60;1.60;;;;;19.44;49.01;99333.19;5067890;28;45510;-62
2023/08/09 01:21:01;;;;;;;;;2.60;2.60;;;;;19.41;49.34;99332.56;5062929;27;45475;-63
2023/08/09 01:23:36;;;;;;;;;1.20;1.20;;;;;19.35;49.83;99333.88;5071071;27;45505;-62
2023/08/09 01:26:04;;;;;;;;;2.00;2.00;;;;;19.29;49.72;99339.66;5055266;27;45545;-62
2023/08/09 01:28:30;;;;;;;;;2.00;2.00;;;;;19.24;49.85;99340.97;5065426;28;46003;-62
2023/08/09 01:30:55;;;;;;;;;2.00;1.00;;;;;19.18;49.77;99334.22;5071617;28;45456;-62
2023/08/09 01:33:21;;;;;;;;;1.00;1.00;;;;;19.15;50.53;99342.47;5069988;28;45475;-62
2023/08/09 01:35:55;;;;;;;;;3.00;2.75;;;;;19.12;50.10;99342.69;5065061;28;45434;-63
2023/08/09 01:38:28;;;;;;;;;2.00;2.00;;;;;19.09;49.78;99337.56;5063336;28;46461;-62
2023/08/09 01:40:54;;;;;;;;;2.40;2.40;;;;;19.07;50.56;99342.19;5057794;28;45459;-62
2023/08/09 01:43:21;;;;;;;;;2.25;1.50;;;;;19.07;50.21;99326.13;5062946;28;45547;-62
2023/08/09 01:45:47;;;;;;;;;1.80;1.80;;;;;19.05;50.62;99330.72;5060954;28;45521;-62
2023/08/09 01:48:13;;;;;;;;;2.00;2.00;;;;;19.04;50.65;99324.53;5064343;28;45703;-62
2023/08/09 01:50:40;;;;;;;;;3.00;2.00;;;;;19.01;50.64;99329.25;5062485;28;45496;-62
2023/08/09 01:53:06;;;;;;;;;2.60;2.60;;;;;18.97;51.00;99335.75;5059142;28;45432;-63
2023/08/09 01:55:31;;;;;;;;;3.00;3.00;;;;;18.95;51.39;99327.00;5059304;27;45579;-62
2023/08/09 01:57:57;;;;;;;;;2.00;2.00;;;;;18.91;51.52;99326.38;5070046;28;45481;-62
2023/08/09 02:00:22;;;;;;;;;3.00;2.00;;;;;18.88;51.70;99326.59;5057870;28;45569;-62
2023/08/09 02:02:50;;;;;;;;;4.00;2.50;;;;;18.86;52.06;99317.81;5063587;27;45418;-62
2023/08/09 02:05:16;;;;;;;;;2.75;2.25;;;;;18.85;51.90;99321.47;5053290;27;45639;-63
2023/08/09 02:07:41;;;;;;;;;2.80;2.40;;;;;18.83;51.69;99320.72;5084672;27;47802;-62
2023/08/09 02:10:10;;;;;;;;;2.75;2.00;;;;;18.82;51.71;99324.34;5068366;28;45553;-63
2023/08/09 02:12:36;;;;;;;;;3.60;3.60;;;;;18.81;51.96;99317.28;5065512;28;45475;-63
2023/08/09 02:15:01;;;;;;;;;2.00;2.00;;;;;18.79;52.00;99317.41;5063906;27;45530;-62
2023/08/09 02:17:27;;;;;;;;;2.00;2.00;;;;;18.78;51.98;99320.16;5058551;28;45478;-62
2023/08/09 02:19:53;;;;;;;;;3.00;3.00;;;;;18.76;51.82;99333.66;5068318;28;45454;-62
2023/08/09 02:22:19;;;;;;;;;1.40;1.40;;;;;18.76;51.81;99327.47;5070834;28;45605;-62
2023/08/09 02:24:44;;;;;;;;;2.00;2.00;;;;;18.74;51.89;99316.03;5065736;27;45411;-62
2023/08/09 02:27:10;;;;;;;;;2.75;2.50;;;;;18.73;51.95;99327.69;5057983;27;45575;-62
2023/08/09 02:29:36;;;;;;;;;3.50;3.00;;;;;18.73;52.60;99325.88;5064065;28;45406;-62
2023/08/09 02:32:02;;;;;;;;;2.00;2.00;;;;;18.72;52.41;99320.63;5059808;28;45456;-62
2023/08/09 02:34:28;;;;;;;;;3.50;2.50;;;;;18.72;51.24;99326.81;5068448;27;45598;-62
2023/08/09 02:36:54;;;;;;;;;3.60;2.20;;;;;18.71;51.44;99330.44;5070455;28;46538;-62
2023/08/09 02:39:20;;;;;;;;;4.00;3.00;;;;;18.70;51.17;99334.09;5068616;28;45773;-63
2023/08/09 02:41:45;;;;;;;;;3.00;3.00;;;;;18.71;51.23;99326.94;5063338;28;45420;-62
2023/08/09 02:44:11;;;;;;;;;2.00;2.00;;;;;18.69;51.23;99327.03;5067388;28;45561;-62
2023/08/09 02:46:37;;;;;;;;;2.50;1.75;;;;;18.68;51.14;99332.47;5062006;28;45538;-62
2023/08/09 02:49:02;;;;;;;;;2.00;2.00;;;;;18.65;51.05;99325.53;5068204;28;45574;-62
2023/08/09 02:51:28;;;;;;;;;2.00;2.00;;;;;18.62;51.10;99325.75;5062755;27;45448;-62
2023/08/09 02:54:05;;;;;;;;;3.00;2.00;;;;;18.61;51.13;99323.16;5067805;28;45456;-62
2023/08/09 02:56:32;;;;;;;;;3.80;3.00;;;;;18.59;50.92;99333.13;5069631;28;45471;-63
2023/08/09 02:58:58;;;;;;;;;1.60;1.60;;;;;18.58;50.84;99329.56;5066916;27;45630;-63
2023/08/09 03:01:24;;;;;;;;;3.75;3.75;;;;;18.57;51.05;99335.00;5067552;28;45476;-62
2023/08/09 03:03:54;;;;;;;;;1.75;1.50;;;;;18.56;51.54;99344.00;5067347;27;45789;-63
2023/08/09 03:06:23;;;;;;;;;1.20;1.00;;;;;18.54;51.99;99344.09;5069551;28;45494;-62
2023/08/09 03:08:49;;;;;;;;;1.60;1.60;;;;;18.54;51.81;99345.91;5070016;27;45585;-63
2023/08/09 03:11:14;;;;;;;;;1.00;1.00;;;;;18.52;51.82;99347.81;5057873;27;45651;-62
2023/08/09 03:13:40;;;;;;;;;1.00;1.00;;;;;18.49;51.82;99355.06;5067877;28;45473;-62
2023/08/09 03:16:06;;;;;;;;;2.00;2.00;;;;;18.48;51.76;99356.03;5059879;28;46092;-62
2023/08/09 03:18:31;;;;;;;;;2.00;2.00;;;;;18.47;51.58;99353.47;5066325;28;45607;-63
2023/08/09 03:20:57;;;;;;;;;3.00;3.00;;;;;18.46;51.98;99357.94;5061094;28;45571;-63
2023/08/09 03:23:22;;;;;;;;;2.75;2.75;;;;;18.44;51.86;99357.19;5066641;28;45631;-62
2023/08/09 03:25:48;;;;;;;;;4.25;2.00;;;;;18.42;51.82;99364.50;5061444;28;45532;-62
2023/08/09 03:28:13;;;;;;;;;2.50;2.50;;;;;18.41;52.09;99368.13;5102501;27;46119;-63
2023/08/09 03:30:39;;;;;;;;;2.00;2.00;;;;;18.41;51.92;99367.25;5065649;28;45617;-62
2023/08/09 03:33:04;;;;;;;;;3.50;3.50;;;;;18.38;52.22;99370.13;5071345;28;45445;-62
2023/08/09 03:35:30;;;;;;;;;2.50;2.50;;;;;18.36;52.48;99380.06;5068237;28;45689;-63
2023/08/09 03:37:55;;;;;;;;;3.00;3.00;;;;;18.35;52.46;99381.88;5071278;28;45431;-63
2023/08/09 03:40:21;;;;;;;;;2.00;2.00;;;;;18.34;52.87;99380.16;5060494;28;45505;-62
2023/08/09 03:42:46;;;;;;;;;2.50;2.50;;;;;18.34;52.83;99384.63;5074018;28;45451;-62
2023/08/09 03:45:11;;;;;;;;;2.50;2.50;;;;;18.30;52.96;99380.47;5068239;28;47291;-62
2023/08/09 03:47:37;;;;;;;;;3.50;2.00;;;;;18.25;53.42;99372.78;5073382;28;45681;-62
2023/08/09 03:50:05;;;;;;;;;3.50;3.50;;;;;18.21;53.32;99368.59;5064641;28;46061;-62
2023/08/09 03:52:31;;;;;;;;;1.00;1.00;;;;;18.14;53.68;99373.47;5072437;28;45598;-62
2023/08/09 03:54:56;;;;;;;;;4.25;3.00;;;;;18.12;53.54;99382.53;5067315;28;45575;-62
2023/08/09 03:57:21;;;;;;;;;2.00;2.00;;;;;18.08;53.36;99381.91;5059082;28;45602;-62
2023/08/09 03:59:47;;;;;;;;;2.75;2.75;;;;;18.04;53.48;99385.75;5068033;27;45576;-62
2023/08/09 04:02:13;;;;;;;;;2.75;2.75;;;;;18.04;53.41;99390.22;5071844;28;45445;-63
2023/08/09 04:04:39;;;;;;;;;4.75;3.75;;;;;18.01;53.39;99391.28;5069712;28;46534;-62
2023/08/09 04:07:04;;;;;;;;;2.75;2.00;;;;;17.97;53.42;99394.25;5070155;27;45510;-62
2023/08/09 04:09:30;;;;;;;;;2.75;2.50;;;;;17.95;53.38;99398.81;5067513;28;45743;-62
2023/08/09 04:11:56;;;;;;;;;3.00;2.00;;;;;17.91;53.46;99395.53;5069936;28;45821;-62
2023/08/09 04:14:21;;;;;;;;;4.50;2.25;;;;;17.90;53.44;99398.28;5067898;28;45752;-62
2023/08/09 04:16:47;;;;;;;;;3.00;2.00;;;;;17.88;53.61;99400.19;5064125;28;45397;-62
2023/08/09 04:19:12;;;;;;;;;3.00;3.00;;;;;17.86;53.61;99394.94;5067951;28;45587;-62
2023/08/09 04:21:37;;;;;;;;;2.00;2.00;;;;;17.86;53.94;99402.09;5064839;28;45506;-62
2023/08/09 04:24:04;;;;;;;;;1.25;1.25;;;;;17.85;53.70;99403.06;5068055;28;45472;-62
2023/08/09 04:26:29;;;;;;;;;4.80;3.00;;;;;17.82;54.06;99414.78;5063439;28;45562;-62
2023/08/09 04:28:55;;;;;;;;;3.00;3.00;;;;;17.82;53.74;99424.59;5070612;27;45780;-62
2023/08/09 04:31:21;;;;;;;;;2.25;2.25;;;;;17.82;53.79;99419.25;5063903;28;45503;-62
2023/08/09 04:33:49;;;;;;;;;2.00;2.00;;;;;17.82;54.11;99424.59;5070167;28;46334;-62
2023/08/09 04:36:16;;;;;;;;;8.00;7.00;;;;;17.82;54.14;99421.91;5068948;28;45451;-62
2023/08/09 04:38:42;;;;;;;;;4.20;3.60;;;;;17.82;54.09;99432.59;5069901;28;45522;-62
2023/08/09 04:41:09;;;;;;;;;4.25;4.00;;;;;17.81;54.90;99438.88;5062357;28;45525;-62
2023/08/09 04:43:37;;;;;;;;;3.00;2.75;;;;;17.82;54.85;99437.91;5071064;27;46296;-62
2023/08/09 04:46:03;;;;;;;;;3.20;3.20;;;;;17.80;55.00;99438.00;5060519;27;45497;-62
2023/08/09 04:48:29;;;;;;;;;3.75;3.25;;;;;17.80;55.50;99432.69;5071708;27;45517;-62
2023/08/09 04:50:55;;;;;;;;;5.00;4.00;;;;;17.78;55.30;99430.09;5065956;28;45510;-62
2023/08/09 04:53:20;;;;;;;;;3.75;3.75;;;;;17.77;55.80;99432.88;5098403;27;47397;-62
2023/08/09 04:55:46;;;;;;;;;4.50;4.50;;;;;17.75;55.76;99433.00;5064522;28;45501;-62
2023/08/09 04:58:11;;;;;;;;;8.00;7.50;;;;;17.75;55.71;99438.34;5066729;28;45495;-62
2023/08/09 05:00:38;;;;;;;;;6.50;6.50;;;;;17.74;55.59;99436.63;5065406;28;45581;-62
2023/08/09 05:03:04;;;;;;;;;8.00;7.25;;;;;17.74;55.33;99443.75;5072722;28;45489;-62
2023/08/09 05:05:30;;;;;;;;;5.20;5.20;;;;;17.75;55.78;99442.81;5067355;27;45576;-63
2023/08/09 05:07:57;;;;;;;;;5.50;5.50;;;;;17.76;55.73;99437.34;5063653;28;45687;-62
2023/08/09 05:10:22;;;;;;;;;5.00;5.00;;;;;17.76;55.82;99434.69;5064463;28;45543;-62
2023/08/09 05:12:48;;;;;;;;;4.75;4.25;;;;;17.77;55.98;99444.41;5062317;28;45502;-63
2023/08/09 05:15:13;;;;;;;;;3.00;3.00;;;;;17.76;56.12;99434.69;5058245;28;45432;-62
2023/08/09 05:17:39;;;;;;;;;5.00;3.75;;;;;17.76;56.26;99440.03;5070975;28;45519;-63
2023/08/09 05:20:05;;;;;;;;;5.00;5.00;;;;;17.78;55.85;99435.44;5062107;28;45435;-62
2023/08/09 05:22:31;;;;;;;;;5.50;5.00;;;;;17.79;56.65;99439.81;5068150;28;46669;-62
2023/08/09 05:24:56;;;;;;;;;3.00;3.00;;;;;17.81;56.37;99446.88;5065824;27;45423;-62
2023/08/09 05:27:21;;;;;;;;;4.50;4.50;;;;;17.83;56.50;99451.16;5055201;28;45601;-63
2023/08/09 05:29:47;;;;;;;;;4.25;4.25;;;;;17.85;55.96;99459.91;5061686;27;45411;-63
2023/08/09 05:32:12;;;;;;;;;3.00;3.00;;;;;17.86;56.05;99458.97;5099375;27;47281;-63
2023/08/09 05:34:38;;;;;;;;;5.00;3.00;;;;;17.89;55.78;99455.25;5062019;28;45546;-63
2023/08/09 05:37:03;;;;;;;;;5.00;3.25;;;;;17.91;55.69;99453.34;5066601;28;45510;-63
2023/08/09 05:39:29;;;;;;;;;4.75;4.75;;;;;17.94;55.62;99453.13;5066051;28;45564;-63
2023/08/09 05:41:54;;;;;;;;;5.25;4.50;;;;;17.96;55.66;99448.53;5066931;28;46745;-63
2023/08/09 05:44:20;;;;;;;;;5.00;4.00;;;;;17.98;55.82;99454.63;5061982;27;45510;-63
2023/08/09 05:46:45;;;;;;;;;4.50;4.00;;;;;17.99;55.74;99451.88;5064826;28;45548;-63
2023/08/09 05:49:11;;;;;;;;;4.00;4.00;;;;;18.02;55.66;99459.69;5064115;28;45541;-62
2023/08/09 05:51:36;;;;;;;;;4.00;4.00;;;;;18.05;56.34;99448.81;5066058;28;46089;-62
2023/08/09 05:54:02;;;;;;;;;7.75;5.00;;;;;18.07;56.36;99457.59;5065023;28;45578;-62
2023/08/09 05:56:28;;;;;;;;;6.00;5.75;;;;;18.10;56.18;99453.84;5067264;27;45800;-62
2023/08/09 05:58:54;;;;;;;;;4.50;4.50;;;;;18.12;56.14;99457.25;5064562;27;45525;-63
2023/08/09 06:01:20;;;;;;;;;3.00;3.00;;;;;18.15;56.18;99457.06;5066343;28;46214;-63
2023/08/09 06:03:46;;;;;;;;;4.40;4.40;;;;;18.19;56.52;99463.06;5064941;27;45539;-63
2023/08/09 06:06:11;;;;;;;;;4.25;4.00;;;;;18.21;56.32;99459.34;5067093;28;45826;-63
2023/08/09 06:08:36;;;;;;;;;7.00;6.00;;;;;18.24;56.60;99461.81;5064788;28;45654;-63
2023/08/09 06:11:03;;;;;;;;;4.75;4.75;;;;;18.27;56.38;99463.41;5065784;28;45541;-63
2023/08/09 06:13:28;;;;;;;;;5.00;4.40;;;;;18.28;55.13;99465.97;5065160;27;45541;-63
2023/08/09 06:15:54;;;;;;;;;4.00;3.00;;;;;18.29;55.41;99461.50;5065268;28;45717;-63
2023/08/09 06:18:19;;;;;;;;;6.50;6.50;;;;;18.33;55.51;99463.00;5065755;28;45494;-62
2023/08/09 06:20:45;;;;;;;;;9.75;7.75;;;;;18.34;55.66;99462.03;5063603;28;46344;-63
2023/08/09 06:23:10;;;;;;;;;5.25;4.25;;;;;18.37;55.67;99460.03;5066165;28;45462;-63
2023/08/09 06:25:36;;;;;;;;;7.00;6.00;;;;;18.42;55.18;99459.75;5065708;27;45625;-63
2023/08/09 06:28:02;;;;;;;;;2.00;1.75;;;;;18.47;54.77;99466.47;5066808;28;45609;-63
2023/08/09 06:30:28;;;;;;;;;5.00;5.00;;;;;18.52;54.70;99462.63;5094657;27;48200;-62
2023/08/09 06:32:53;;;;;;;;;5.00;4.00;;;;;18.57;54.90;99465.88;5064706;28;45452;-63
2023/08/09 06:35:19;;;;;;;;;5.00;5.00;;;;;18.64;54.41;99467.16;5064373;28;45984;-63
2023/08/09 06:37:46;;;;;;;;;7.50;5.00;;;;;18.69;54.71;99468.59;5063489;27;45577;-63
2023/08/09 06:40:12;;;;;;;;;5.75;4.75;;;;;18.73;54.63;99462.09;5065170;28;45618;-63
2023/08/09 06:42:39;;;;;;;;;4.00;4.00;;;;;18.78;54.39;99461.75;5064200;28;45627;-63
2023/08/09 06:45:05;;;;;;;;;7.50;6.50;;;;;18.82;53.66;99468.59;5064113;27;45584;-64
2023/08/09 06:47:31;;;;;;;;;6.25;5.00;;;;;18.87;53.96;99469.16;5072514;27;45471;-63
2023/08/09 06:49:56;;;;;;;;;7.75;4.25;;;;;18.93;53.45;99467.88;5062940;27;46379;-64
2023/08/09 06:52:21;;;;;;;;;5.00;5.00;;;;;18.98;53.40;99471.94;5070940;28;45384;-63
2023/08/09 06:54:47;;;;;;;;;3.00;3.00;;;;;19.03;53.58;99479.63;5080280;27;45360;-64
2023/08/09 06:57:12;;;;;;;;;5.75;3.00;;;;;19.06;53.53;99477.63;5056086;28;45509;-64
2023/08/09 06:59:38;;;;;;;;;4.00;3.25;;;;;19.11;53.41;99478.13;5066841;28;45397;-64
2023/08/09 07:02:03;;;;;;;;;3.00;3.00;;;;;19.17;53.24;99471.50;5071747;27;45467;-64
2023/08/09 07:04:29;;;;;;;;;3.50;3.50;;;;;19.23;53.16;99476.44;5065514;28;45505;-63
2023/08/09 07:06:54;;;;;;;;;4.00;3.25;;;;;19.31;53.07;99471.41;5063955;28;45428;-64
2023/08/09 07:09:20;;;;;;;;;5.75;4.00;;;;;19.39;53.02;99473.53;5068750;28;46284;-63
2023/08/09 07:11:48;;;;;;;;;3.25;3.25;;;;;19.46;52.66;99469.44;5064834;28;45389;-64
2023/08/09 07:14:14;;;;;;;;;6.00;6.00;;;;;19.54;52.81;99468.94;5071153;28;45490;-64
2023/08/09 07:16:39;;;;;;;;;4.00;4.00;;;;;19.60;52.51;99466.72;5064538;28;45425;-63
2023/08/09 07:19:05;;;;;;;;;5.50;4.25;;;;;19.69;52.27;99467.84;5071312;28;45602;-65
2023/08/09 07:21:30;;;;;;;;;4.00;2.25;;;;;19.76;52.01;99461.97;5072342;28;45459;-63
2023/08/09 07:23:55;;;;;;;;;2.25;2.25;;;;;19.82;51.53;99457.97;5070722;28;45417;-63
2023/08/09 07:26:21;;;;;;;;;3.50;2.75;;;;;19.91;51.43;99457.31;5061573;28;45385;-64
2023/08/09 07:28:46;;;;;;;;;5.25;4.00;;;;;19.98;51.25;99450.53;5067157;28;46099;-64
2023/08/09 07:31:19;;;;;;;;;4.00;3.00;;;;;20.06;51.41;99447.31;5062146;28;45536;-64
2023/08/09 07:33:46;;;;;;;;;3.80;3.20;;;;;20.15;51.21;99452.81;5066895;28;45448;-64
2023/08/09 07:36:11;;;;;;;;;3.00;3.00;;;;;20.24;50.89;99458.47;5066931;27;45425;-63
2023/08/09 07:38:37;;;;;;;;;3.50;3.50;;;;;20.31;50.79;99455.22;5067853;28;45715;-64
2023/08/09 07:41:03;;;;;;;;;4.25;4.00;;;;;20.38;50.91;99451.16;5062119;28;45487;-63
2023/08/09 07:43:28;;;;;;;;;3.00;3.00;;;;;20.45;50.44;99452.38;5066864;28;45393;-64
2023/08/09 07:45:54;;;;;;;;;4.00;3.00;;;;;20.52;50.52;99453.63;5063437;28;45369;-64
2023/08/09 07:48:19;;;;;;;;;2.00;2.00;;;;;20.61;49.82;99449.38;5068363;28;45571;-64
2023/08/09 07:50:45;;;;;;;;;3.75;2.75;;;;;20.70;49.47;99455.88;5064366;28;45519;-64
2023/08/09 07:53:10;;;;;;;;;3.50;3.00;;;;;20.74;49.08;99446.66;5069100;28;45317;-64
2023/08/09 07:55:36;;;;;;;;;4.25;3.75;;;;;20.80;49.06;99451.53;5065276;28;45447;-64
2023/08/09 07:58:01;;;;;;;;;4.00;3.75;;;;;20.87;49.17;99450.94;5068528;28;45757;-64
2023/08/09 08:00:27;;;;;;;;;1.50;1.50;;;;;20.95;48.49;99449.50;5066346;28;45502;-64
2023/08/09 08:02:53;;;;;;;;;3.00;2.00;;;;;21.01;48.37;99451.69;5072954;28;45301;-64
2023/08/09 08:05:19;;;;;;;;;3.40;3.00;;;;;21.06;48.00;99446.84;5054167;28;46347;-64
2023/08/09 08:07:44;;;;;;;;;4.00;4.00;;;;;21.12;47.70;99439.16;5059200;28;45564;-64
2023/08/09 08:10:15;;;;;;;;;2.25;2.25;;;;;21.18;47.57;99432.47;5060776;27;45432;-63
2023/08/09 08:12:45;;;;;;;;;3.80;3.00;;;;;21.23;47.71;99433.84;5071165;28;45431;-64
2023/08/09 08:15:12;;;;;;;;;3.00;3.00;;;;;21.29;47.62;99429.81;5068853;28;45361;-66
2023/08/09 08:17:38;;;;;;;;;3.20;3.00;;;;;21.35;47.98;99431.16;5081201;27;47058;-64
2023/08/09 08:20:10;;;;;;;;;6.00;4.50;;;;;21.41;48.04;99431.53;5070610;28;45569;-64
2023/08/09 08:22:35;;;;;;;;;3.60;3.40;;;;;21.46;47.47;99431.16;5063432;27;45385;-64
2023/08/09 08:25:01;;;;;;;;;3.25;3.25;;;;;21.53;48.06;99438.59;5070277;28;45399;-64
2023/08/09 08:27:26;;;;;;;;;5.00;3.00;;;;;21.57;47.63;99432.03;5064464;27;46059;-64
2023/08/09 08:29:55;;;;;;;;;2.25;2.00;;;;;21.63;47.89;99421.75;5073804;28;45443;-64
2023/08/09 08:32:20;;;;;;;;;6.00;4.40;;;;;21.68;47.65;99417.72;5064020;27;45383;-64
2023/08/09 08:34:46;;;;;;;;;3.25;2.75;;;;;21.76;48.36;99417.13;5073066;28;45346;-64
2023/08/09 08:37:12;;;;;;;;;4.60;3.20;;;;;21.83;47.81;99418.31;5065157;28;45542;-63
2023/08/09 08:39:38;;;;;;;;;3.80;3.80;;;;;21.90;47.72;99420.38;5070259;27;45440;-64
2023/08/09 08:42:04;;;;;;;;;2.50;2.00;;;;;21.98;46.83;99413.50;5070218;28;45379;-64
2023/08/09 08:44:29;;;;;;;;;2.75;2.75;;;;;22.05;46.99;99410.22;5072341;28;45512;-64
2023/08/09 08:46:55;;;;;;;;;3.00;3.00;;;;;22.10;46.07;99413.41;5068470;28;45537;-64
2023/08/09 08:49:24;;;;;;;;;4.25;4.25;;;;;22.17;46.22;99409.22;5069452;28;45538;-65
2023/08/09 08:51:54;;;;;;;;;3.60;3.00;;;;;22.23;45.93;99408.72;5063463;28;45376;-64
2023/08/09 08:54:19;;;;;;;;;2.00;2.00;;;;;22.29;45.79;99401.94;5068939;28;45392;-64
2023/08/09 08:56:47;;;;;;;;;5.00;4.00;;;;;22.35;45.44;99404.13;5063887;28;46226;-65
2023/08/09 08:59:13;;;;;;;;;2.20;2.20;;;;;22.41;45.25;99394.72;5071912;28;45586;-64
2023/08/09 09:01:39;;;;;;;;;3.20;2.80;;;;;22.50;45.30;99396.59;5075153;27;45346;-65
2023/08/09 09:04:04;;;;;;;;;3.50;2.50;;;;;22.55;45.09;99391.72;5073941;27;45491;-65
2023/08/09 09:06:30;;;;;;;;;4.25;3.25;;;;;22.59;44.99;99382.41;5061168;28;45567;-65
2023/08/09 09:08:56;;;;;;;;;6.50;4.00;;;;;22.63;44.35;99381.13;5071862;28;45332;-65
2023/08/09 09:11:22;;;;;;;;;6.00;4.00;;;;;22.67;44.64;99379.91;5064110;28;45489;-64
2023/08/09 09:13:50;;;;;;;;;3.00;2.00;;;;;22.73;43.73;99382.06;5073146;28;45507;-65
2023/08/09 09:16:17;;;;;;;;;2.00;2.00;;;;;22.79;44.00;99376.19;5070122;28;45523;-65
2023/08/09 09:18:48;;;;;;;;;3.80;2.00;;;;;22.86;43.64;99373.81;5073887;28;45478;-64
2023/08/09 09:21:18;;;;;;;;;5.80;3.20;;;;;22.92;43.76;99370.63;5064579;28;45341;-64
2023/08/09 09:23:44;;;;;;;;;2.80;2.80;;;;;22.96;43.28;99363.97;5073733;28;45663;-64
2023/08/09 09:26:14;;;;;;;;;2.50;2.50;;;;;22.95;43.16;99360.44;5069656;28;45558;-65
2023/08/09 09:28:45;;;;;;;;;2.80;2.80;;;;;22.98;43.10;99357.47;5073178;28;45376;-64
2023/08/09 09:31:13;;;;;;;;;4.40;3.80;;;;;23.01;43.35;99358.19;5063794;28;45339;-65
2023/08/09 09:33:39;;;;;;;;;3.75;3.75;;;;;23.05;43.38;99355.09;5073486;28;45464;-65
2023/08/09 09:36:10;;;;;;;;;2.40;2.40;;;;;23.12;42.77;99353.59;5064947;28;45600;-64
2023/08/09 09:38:36;;;;;;;;;2.20;2.20;;;;;23.19;42.43;99345.81;5073421;28;45465;-64
2023/08/09 09:41:02;;;;;;;;;3.20;3.20;;;;;23.28;42.23;99345.88;5064269;27;45392;-65
2023/08/09 09:43:32;;;;;;;;;3.00;3.00;;;;;23.33;42.53;99348.13;5072294;28;45626;-65
2023/08/09 09:45:57;;;;;;;;;3.20;2.00;;;;;23.37;42.09;99337.94;5062979;28;45521;-64
2023/08/09 09:48:24;;;;;;;;;2.00;2.00;;;;;23.39;41.77;99341.34;5074320;28;45421;-65
2023/08/09 09:50:50;;;;;;;;;3.00;3.00;;;;;23.40;41.45;99335.84;5061815;28;45380;-65
2023/08/09 09:53:18;;;;;;;;;2.00;2.00;;;;;23.42;41.65;99336.56;5066166;28;45318;-65
2023/08/09 09:55:43;;;;;;;;;3.80;3.00;;;;;23.48;41.55;99333.28;5066303;28;46108;-65
2023/08/09 09:58:09;;;;;;;;;2.00;2.00;;;;;23.55;41.38;99326.41;5065838;28;45492;-65
2023/08/09 10:00:36;;;;;;;;;2.50;2.50;;;;;23.64;41.42;99336.34;5070975;27;45403;-65
2023/08/09 10:03:04;;;;;;;;;1.40;1.40;;;;;23.74;41.05;99327.44;5075118;27;45452;-65
2023/08/09 10:05:37;;;;;;;;;3.40;3.00;;;;;23.84;40.02;99329.13;5068561;28;45495;-65
2023/08/09 10:08:08;;;;;;;;;3.00;3.00;;;;;23.89;40.33;99326.88;5067895;28;45436;-65
2023/08/09 10:10:35;;;;;;;;;4.00;3.40;;;;;23.96;39.70;99325.31;5066203;28;45463;-67
2023/08/09 10:13:04;;;;;;;;;4.80;3.00;;;;;24.03;39.93;99317.53;5068570;28;45502;-64
2023/08/09 10:15:38;;;;;;;;;2.00;2.00;;;;;24.08;39.78;99319.81;5068196;28;45520;-64
2023/08/09 10:18:18;;;;;;;;;2.00;2.00;;;;;24.15;39.84;99312.84;5101268;27;45515;-64
2023/08/09 10:20:50;;;;;;;;;1.80;1.80;;;;;24.21;40.00;99315.81;5067384;28;45523;-65
2023/08/09 10:23:20;;;;;;;;;2.80;2.80;;;;;24.29;39.24;99318.69;5072028;28;45305;-64
2023/08/09 10:25:47;;;;;;;;;2.20;2.20;;;;;24.37;39.25;99315.28;5068679;27;45471;-64
2023/08/09 10:28:13;;;;;;;;;1.40;1.40;;;;;24.43;39.15;99313.84;5058603;28;45422;-65
2023/08/09 10:30:50;;;;;;;;;2.00;1.00;;;;;24.49;39.00;99307.84;5065250;27;45344;-65
2023/08/09 10:33:19;;;;;;;;;3.80;2.00;;;;;24.55;39.40;99310.84;5074474;27;45502;-65
2023/08/09 10:35:46;;;;;;;;;3.60;2.80;;;;;24.62;39.42;99314.66;5069816;28;46175;-64
2023/08/09 10:38:13;;;;;;;;;3.00;3.00;;;;;24.71;39.32;99304.84;5073338;28;45432;-64
2023/08/09 10:40:41;;;;;;;;;5.00;2.80;;;;;24.81;39.29;99304.78;5070658;28;45518;-64
2023/08/09 10:43:08;;;;;;;;;1.80;1.80;;;;;24.88;39.00;99295.97;5056348;28;45528;-64
2023/08/09 10:45:34;;;;;;;;;3.20;3.20;;;;;24.97;39.05;99299.66;5066460;27;45507;-67
2023/08/09 10:48:26;;;;;;;;;2.80;1.80;;;;;25.09;38.85;99289.53;5068682;28;45490;-64
2023/08/09 10:51:07;;;;;;;;;3.00;3.00;;;;;25.20;38.50;99283.94;5066149;28;45297;-64
2023/08/09 10:53:58;;;;;;;;;2.40;2.40;;;;;25.30;38.21;99287.44;5070650;28;45439;-64
2023/08/09 10:56:56;;;;;;;;;1.80;1.80;;;;;25.39;38.02;99284.69;5063338;28;45547;-64
2023/08/09 10:59:24;;;;;;;;;5.00;3.80;;;;;25.47;37.96;99285.78;5075096;27;45736;-64
2023/08/09 11:01:51;;;;;;;;;2.00;2.00;;;;;25.53;37.74;99285.16;5072678;28;45535;-64
2023/08/09 11:04:17;;;;;;;;;3.00;1.80;;;;;25.57;37.74;99279.31;5067949;28;45267;-64
2023/08/09 11:06:46;;;;;;;;;1.00;1.00;;;;;25.64;37.29;99277.69;5062705;28;45407;-64
2023/08/09 11:09:15;;;;;;;;;2.60;2.00;;;;;25.74;37.57;99283.06;5070720;28;45432;-64
2023/08/09 11:11:42;;;;;;;;;3.80;2.00;;;;;25.86;37.97;99280.97;5063311;28;45405;-64
2023/08/09 11:14:09;;;;;;;;;1.00;1.00;;;;;25.94;37.70;99279.19;5072038;28;45618;-65
2023/08/09 11:16:35;;;;;;;;;1.20;1.20;;;;;26.07;37.45;99284.19;5058752;28;45463;-65
2023/08/09 11:19:19;;;;;;;;;2.75;2.25;;;;;26.16;37.27;99277.00;5070262;28;45622;-64
2023/08/09 11:21:52;;;;;;;;;1.00;1.00;;;;;26.26;37.09;99275.91;5064739;28;45375;-63
2023/08/09 11:24:20;;;;;;;;;1.00;1.00;;;;;26.38;37.30;99271.97;5068070;28;45332;-64
2023/08/09 11:26:51;;;;;;;;;2.20;0.80;;;;;26.49;37.47;99260.03;5062168;28;45436;-64
2023/08/09 11:29:18;;;;;;;;;1.40;1.40;;;;;26.60;37.03;99257.09;5068090;28;45578;-63
2023/08/09 11:31:53;;;;;;;;;1.00;0.80;;;;;26.71;36.90;99254.09;5066046;28;45389;-64